sensor_id;sensor_type;location;lat;lon;timestamp;P1;durP1;ratioP1;P2;durP2;ratioP2
70150;SDS011;57517;43.562;19.540;2024-02-16T00:01:18;24.30;;;18.77;;
70150;SDS011;57517;43.562;19.540;2024-02-16T00:03:44;24.55;;;18.58;;
70150;SDS011;57517;43.562;19.540;2024-02-16T00:06:11;26.73;;;18.75;;
70150;SDS011;57517;43.562;19.540;2024-02-16T00:08:37;26.02;;;17.92;;
70150;SDS011;57517;43.562;19.540;2024-02-16T00:11:04;25.48;;;18.17;;
70150;SDS011;57517;43.562;19.540;2024-02-16T00:13:30;29.55;;;21.58;;
70150;SDS011;57517;43.562;19.540;2024-02-16T00:15:57;23.92;;;18.08;;
70150;SDS011;57517;43.562;19.540;2024-02-16T00:18:23;22.02;;;16.80;;
70150;SDS011;57517;43.562;19.540;2024-02-16T00:20:49;26.75;;;19.50;;
70150;SDS011;57517;43.562;19.540;2024-02-16T00:23:15;20.15;;;13.98;;
70150;SDS011;57517;43.562;19.540;2024-02-16T00:25:41;17.90;;;13.18;;
70150;SDS011;57517;43.562;19.540;2024-02-16T00:28:07;17.45;;;12.63;;
70150;SDS011;57517;43.562;19.540;2024-02-16T00:30:33;19.50;;;14.98;;
70150;SDS011;57517;43.562;19.540;2024-02-16T00:32:59;21.70;;;16.35;;
70150;SDS011;57517;43.562;19.540;2024-02-16T00:35:26;24.85;;;17.67;;
70150;SDS011;57517;43.562;19.540;2024-02-16T00:37:52;21.63;;;16.38;;
70150;SDS011;57517;43.562;19.540;2024-02-16T00:40:19;22.25;;;16.90;;
70150;SDS011;57517;43.562;19.540;2024-02-16T00:42:45;29.42;;;21.20;;
70150;SDS011;57517;43.562;19.540;2024-02-16T00:45:10;33.28;;;23.33;;
70150;SDS011;57517;43.562;19.540;2024-02-16T00:47:37;29.58;;;20.75;;
70150;SDS011;57517;43.562;19.540;2024-02-16T00:50:04;25.02;;;22.23;;
70150;SDS011;57517;43.562;19.540;2024-02-16T00:52:33;28.85;;;22.70;;
70150;SDS011;57517;43.562;19.540;2024-02-16T00:54:59;26.77;;;20.90;;
70150;SDS011;57517;43.562;19.540;2024-02-16T00:57:25;26.90;;;18.67;;
70150;SDS011;57517;43.562;19.540;2024-02-16T00:59:51;23.15;;;16.95;;
70150;SDS011;57517;43.562;19.540;2024-02-16T01:02:17;21.63;;;17.27;;
70150;SDS011;57517;43.562;19.540;2024-02-16T01:04:42;22.67;;;16.77;;
70150;SDS011;57517;43.562;19.540;2024-02-16T01:07:08;20.10;;;15.50;;
70150;SDS011;57517;43.562;19.540;2024-02-16T01:09:34;17.85;;;15.02;;
70150;SDS011;57517;43.562;19.540;2024-02-16T01:12:00;24.85;;;16.63;;
70150;SDS011;57517;43.562;19.540;2024-02-16T01:14:26;23.13;;;16.38;;
70150;SDS011;57517;43.562;19.540;2024-02-16T01:16:51;21.13;;;15.63;;
70150;SDS011;57517;43.562;19.540;2024-02-16T01:19:17;26.10;;;17.75;;
70150;SDS011;57517;43.562;19.540;2024-02-16T01:21:43;23.83;;;17.02;;
70150;SDS011;57517;43.562;19.540;2024-02-16T01:24:12;23.95;;;16.58;;
70150;SDS011;57517;43.562;19.540;2024-02-16T01:26:38;31.58;;;22.63;;
70150;SDS011;57517;43.562;19.540;2024-02-16T01:29:04;24.70;;;16.42;;
70150;SDS011;57517;43.562;19.540;2024-02-16T01:31:30;19.15;;;13.68;;
70150;SDS011;57517;43.562;19.540;2024-02-16T01:33:56;16.55;;;11.77;;
70150;SDS011;57517;43.562;19.540;2024-02-16T01:36:22;17.70;;;12.05;;
70150;SDS011;57517;43.562;19.540;2024-02-16T01:38:47;19.27;;;12.27;;
70150;SDS011;57517;43.562;19.540;2024-02-16T01:41:13;15.18;;;11.20;;
70150;SDS011;57517;43.562;19.540;2024-02-16T01:43:40;17.45;;;11.57;;
70150;SDS011;57517;43.562;19.540;2024-02-16T01:46:06;17.38;;;11.93;;
70150;SDS011;57517;43.562;19.540;2024-02-16T01:48:32;17.90;;;12.27;;
70150;SDS011;57517;43.562;19.540;2024-02-16T01:50:58;18.02;;;11.43;;
70150;SDS011;57517;43.562;19.540;2024-02-16T01:53:26;18.02;;;12.60;;
70150;SDS011;57517;43.562;19.540;2024-02-16T01:55:52;20.05;;;13.63;;
70150;SDS011;57517;43.562;19.540;2024-02-16T01:58:18;14.50;;;12.15;;
70150;SDS011;57517;43.562;19.540;2024-02-16T02:00:44;17.77;;;12.35;;
70150;SDS011;57517;43.562;19.540;2024-02-16T02:03:10;15.63;;;11.88;;
70150;SDS011;57517;43.562;19.540;2024-02-16T02:05:44;14.60;;;11.95;;
70150;SDS011;57517;43.562;19.540;2024-02-16T02:08:11;14.85;;;11.57;;
70150;SDS011;57517;43.562;19.540;2024-02-16T02:10:37;17.30;;;12.30;;
70150;SDS011;57517;43.562;19.540;2024-02-16T02:13:03;16.58;;;12.23;;
70150;SDS011;57517;43.562;19.540;2024-02-16T02:15:29;20.67;;;12.30;;
70150;SDS011;57517;43.562;19.540;2024-02-16T02:17:55;16.60;;;11.52;;
70150;SDS011;57517;43.562;19.540;2024-02-16T02:20:23;17.23;;;11.52;;
70150;SDS011;57517;43.562;19.540;2024-02-16T02:22:49;18.55;;;12.75;;
70150;SDS011;57517;43.562;19.540;2024-02-16T02:25:14;18.20;;;12.75;;
70150;SDS011;57517;43.562;19.540;2024-02-16T02:27:40;16.10;;;12.32;;
70150;SDS011;57517;43.562;19.540;2024-02-16T02:30:06;18.52;;;13.10;;
70150;SDS011;57517;43.562;19.540;2024-02-16T02:32:32;18.88;;;12.98;;
70150;SDS011;57517;43.562;19.540;2024-02-16T02:34:59;15.40;;;11.00;;
70150;SDS011;57517;43.562;19.540;2024-02-16T02:37:24;18.33;;;12.07;;
70150;SDS011;57517;43.562;19.540;2024-02-16T02:39:50;19.33;;;12.63;;
70150;SDS011;57517;43.562;19.540;2024-02-16T02:42:16;18.23;;;13.20;;
70150;SDS011;57517;43.562;19.540;2024-02-16T02:44:42;15.95;;;13.40;;
70150;SDS011;57517;43.562;19.540;2024-02-16T02:47:14;19.05;;;13.13;;
70150;SDS011;57517;43.562;19.540;2024-02-16T02:49:40;18.02;;;11.85;;
70150;SDS011;57517;43.562;19.540;2024-02-16T02:52:06;14.68;;;10.18;;
70150;SDS011;57517;43.562;19.540;2024-02-16T02:54:31;17.58;;;11.32;;
70150;SDS011;57517;43.562;19.540;2024-02-16T02:56:57;15.88;;;10.57;;
70150;SDS011;57517;43.562;19.540;2024-02-16T02:59:23;13.18;;;9.88;;
70150;SDS011;57517;43.562;19.540;2024-02-16T03:01:49;14.38;;;10.57;;
70150;SDS011;57517;43.562;19.540;2024-02-16T03:04:14;14.57;;;10.68;;
70150;SDS011;57517;43.562;19.540;2024-02-16T03:06:40;12.90;;;9.48;;
70150;SDS011;57517;43.562;19.540;2024-02-16T03:09:06;12.55;;;9.10;;
70150;SDS011;57517;43.562;19.540;2024-02-16T03:11:32;12.50;;;9.82;;
70150;SDS011;57517;43.562;19.540;2024-02-16T03:13:58;14.02;;;10.45;;
70150;SDS011;57517;43.562;19.540;2024-02-16T03:16:23;14.60;;;10.50;;
70150;SDS011;57517;43.562;19.540;2024-02-16T03:18:49;18.77;;;11.38;;
70150;SDS011;57517;43.562;19.540;2024-02-16T03:21:15;18.02;;;11.32;;
70150;SDS011;57517;43.562;19.540;2024-02-16T03:23:41;14.02;;;9.63;;
70150;SDS011;57517;43.562;19.540;2024-02-16T03:26:15;17.08;;;10.40;;
70150;SDS011;57517;43.562;19.540;2024-02-16T03:28:43;14.13;;;10.07;;
70150;SDS011;57517;43.562;19.540;2024-02-16T03:31:18;15.02;;;9.90;;
70150;SDS011;57517;43.562;19.540;2024-02-16T03:33:45;13.95;;;9.73;;
70150;SDS011;57517;43.562;19.540;2024-02-16T03:36:12;12.95;;;9.32;;
70150;SDS011;57517;43.562;19.540;2024-02-16T03:38:42;13.63;;;9.60;;
70150;SDS011;57517;43.562;19.540;2024-02-16T03:41:12;16.50;;;10.45;;
70150;SDS011;57517;43.562;19.540;2024-02-16T03:43:39;15.90;;;11.38;;
70150;SDS011;57517;43.562;19.540;2024-02-16T03:46:05;17.15;;;10.73;;
70150;SDS011;57517;43.562;19.540;2024-02-16T03:48:31;13.70;;;10.70;;
70150;SDS011;57517;43.562;19.540;2024-02-16T03:50:57;14.65;;;11.50;;
70150;SDS011;57517;43.562;19.540;2024-02-16T03:53:23;13.77;;;10.15;;
70150;SDS011;57517;43.562;19.540;2024-02-16T03:55:49;16.85;;;10.68;;
70150;SDS011;57517;43.562;19.540;2024-02-16T03:58:16;15.90;;;10.35;;
70150;SDS011;57517;43.562;19.540;2024-02-16T04:00:42;16.33;;;11.70;;
70150;SDS011;57517;43.562;19.540;2024-02-16T04:03:08;21.55;;;12.70;;
70150;SDS011;57517;43.562;19.540;2024-02-16T04:05:34;15.80;;;11.25;;
70150;SDS011;57517;43.562;19.540;2024-02-16T04:08:03;14.23;;;9.90;;
70150;SDS011;57517;43.562;19.540;2024-02-16T04:10:31;12.13;;;9.57;;
70150;SDS011;57517;43.562;19.540;2024-02-16T04:12:58;14.93;;;10.02;;
70150;SDS011;57517;43.562;19.540;2024-02-16T04:15:23;13.95;;;10.13;;
70150;SDS011;57517;43.562;19.540;2024-02-16T04:17:49;11.52;;;10.18;;
70150;SDS011;57517;43.562;19.540;2024-02-16T04:20:15;12.63;;;10.18;;
70150;SDS011;57517;43.562;19.540;2024-02-16T04:22:41;14.90;;;11.45;;
70150;SDS011;57517;43.562;19.540;2024-02-16T04:25:08;21.30;;;15.50;;
70150;SDS011;57517;43.562;19.540;2024-02-16T04:27:34;16.98;;;13.23;;
70150;SDS011;57517;43.562;19.540;2024-02-16T04:30:00;17.42;;;11.98;;
70150;SDS011;57517;43.562;19.540;2024-02-16T04:32:27;18.63;;;12.73;;
70150;SDS011;57517;43.562;19.540;2024-02-16T04:34:53;16.50;;;11.65;;
70150;SDS011;57517;43.562;19.540;2024-02-16T04:37:21;17.20;;;12.55;;
70150;SDS011;57517;43.562;19.540;2024-02-16T04:39:48;18.35;;;12.18;;
70150;SDS011;57517;43.562;19.540;2024-02-16T04:42:14;17.48;;;13.10;;
70150;SDS011;57517;43.562;19.540;2024-02-16T04:44:41;21.48;;;17.10;;
70150;SDS011;57517;43.562;19.540;2024-02-16T04:47:07;27.15;;;20.90;;
70150;SDS011;57517;43.562;19.540;2024-02-16T04:49:34;28.98;;;20.30;;
70150;SDS011;57517;43.562;19.540;2024-02-16T04:51:59;30.63;;;21.42;;
70150;SDS011;57517;43.562;19.540;2024-02-16T04:54:25;30.13;;;20.23;;
70150;SDS011;57517;43.562;19.540;2024-02-16T04:56:51;33.50;;;23.35;;
70150;SDS011;57517;43.562;19.540;2024-02-16T04:59:17;26.50;;;18.10;;
70150;SDS011;57517;43.562;19.540;2024-02-16T05:01:43;24.48;;;17.83;;
70150;SDS011;57517;43.562;19.540;2024-02-16T05:04:12;22.20;;;17.15;;
70150;SDS011;57517;43.562;19.540;2024-02-16T05:06:42;23.15;;;16.70;;
70150;SDS011;57517;43.562;19.540;2024-02-16T05:09:08;24.02;;;16.15;;
70150;SDS011;57517;43.562;19.540;2024-02-16T05:11:34;22.20;;;15.70;;
70150;SDS011;57517;43.562;19.540;2024-02-16T05:14:00;20.58;;;15.20;;
70150;SDS011;57517;43.562;19.540;2024-02-16T05:16:27;29.38;;;19.60;;
70150;SDS011;57517;43.562;19.540;2024-02-16T05:18:55;22.30;;;17.58;;
70150;SDS011;57517;43.562;19.540;2024-02-16T05:21:21;20.42;;;16.75;;
70150;SDS011;57517;43.562;19.540;2024-02-16T05:23:47;25.50;;;19.17;;
70150;SDS011;57517;43.562;19.540;2024-02-16T05:26:13;20.75;;;15.20;;
70150;SDS011;57517;43.562;19.540;2024-02-16T05:28:39;17.48;;;14.35;;
70150;SDS011;57517;43.562;19.540;2024-02-16T05:31:14;20.45;;;15.18;;
70150;SDS011;57517;43.562;19.540;2024-02-16T05:33:42;20.88;;;16.10;;
70150;SDS011;57517;43.562;19.540;2024-02-16T05:36:18;20.67;;;14.25;;
70150;SDS011;57517;43.562;19.540;2024-02-16T05:38:45;19.58;;;14.30;;
70150;SDS011;57517;43.562;19.540;2024-02-16T05:41:12;20.52;;;13.95;;
70150;SDS011;57517;43.562;19.540;2024-02-16T05:43:38;18.33;;;14.48;;
70150;SDS011;57517;43.562;19.540;2024-02-16T05:46:04;21.42;;;16.42;;
70150;SDS011;57517;43.562;19.540;2024-02-16T05:48:33;29.15;;;19.33;;
70150;SDS011;57517;43.562;19.540;2024-02-16T05:51:02;29.13;;;20.63;;
70150;SDS011;57517;43.562;19.540;2024-02-16T05:53:30;25.77;;;19.60;;
70150;SDS011;57517;43.562;19.540;2024-02-16T05:55:56;28.55;;;20.55;;
70150;SDS011;57517;43.562;19.540;2024-02-16T05:58:23;32.25;;;22.38;;
70150;SDS011;57517;43.562;19.540;2024-02-16T06:00:49;28.95;;;21.63;;
70150;SDS011;57517;43.562;19.540;2024-02-16T06:03:15;29.98;;;21.05;;
70150;SDS011;57517;43.562;19.540;2024-02-16T06:05:41;28.40;;;19.48;;
70150;SDS011;57517;43.562;19.540;2024-02-16T06:08:12;24.70;;;17.85;;
70150;SDS011;57517;43.562;19.540;2024-02-16T06:10:38;23.25;;;17.10;;
70150;SDS011;57517;43.562;19.540;2024-02-16T06:13:05;25.10;;;17.17;;
70150;SDS011;57517;43.562;19.540;2024-02-16T06:15:31;24.15;;;16.40;;
70150;SDS011;57517;43.562;19.540;2024-02-16T06:17:59;24.70;;;17.85;;
70150;SDS011;57517;43.562;19.540;2024-02-16T06:20:25;25.77;;;17.42;;
70150;SDS011;57517;43.562;19.540;2024-02-16T06:22:51;27.15;;;18.30;;
70150;SDS011;57517;43.562;19.540;2024-02-16T06:25:17;25.83;;;18.13;;
70150;SDS011;57517;43.562;19.540;2024-02-16T06:27:44;27.25;;;19.67;;
70150;SDS011;57517;43.562;19.540;2024-02-16T06:30:09;26.77;;;19.45;;
70150;SDS011;57517;43.562;19.540;2024-02-16T06:32:38;27.58;;;18.33;;
70150;SDS011;57517;43.562;19.540;2024-02-16T06:35:06;31.60;;;19.73;;
70150;SDS011;57517;43.562;19.540;2024-02-16T06:37:33;33.75;;;22.42;;
70150;SDS011;57517;43.562;19.540;2024-02-16T06:39:58;27.73;;;20.58;;
70150;SDS011;57517;43.562;19.540;2024-02-16T06:42:24;30.83;;;21.23;;
70150;SDS011;57517;43.562;19.540;2024-02-16T06:44:50;30.27;;;20.88;;
70150;SDS011;57517;43.562;19.540;2024-02-16T06:47:16;30.52;;;22.15;;
70150;SDS011;57517;43.562;19.540;2024-02-16T06:49:42;31.17;;;22.98;;
70150;SDS011;57517;43.562;19.540;2024-02-16T06:52:08;36.22;;;22.67;;
70150;SDS011;57517;43.562;19.540;2024-02-16T06:54:35;34.42;;;23.02;;
70150;SDS011;57517;43.562;19.540;2024-02-16T06:57:00;35.20;;;23.70;;
70150;SDS011;57517;43.562;19.540;2024-02-16T06:59:26;46.13;;;29.58;;
70150;SDS011;57517;43.562;19.540;2024-02-16T07:01:52;47.75;;;32.28;;
70150;SDS011;57517;43.562;19.540;2024-02-16T07:04:18;62.13;;;30.90;;
70150;SDS011;57517;43.562;19.540;2024-02-16T07:06:44;40.00;;;26.23;;
70150;SDS011;57517;43.562;19.540;2024-02-16T07:09:10;39.65;;;27.75;;
70150;SDS011;57517;43.562;19.540;2024-02-16T07:11:39;39.88;;;27.15;;
70150;SDS011;57517;43.562;19.540;2024-02-16T07:14:05;65.63;;;48.40;;
70150;SDS011;57517;43.562;19.540;2024-02-16T07:16:33;46.97;;;31.73;;
70150;SDS011;57517;43.562;19.540;2024-02-16T07:18:58;43.50;;;29.83;;
70150;SDS011;57517;43.562;19.540;2024-02-16T07:21:24;49.88;;;30.77;;
70150;SDS011;57517;43.562;19.540;2024-02-16T07:23:51;51.17;;;34.30;;
70150;SDS011;57517;43.562;19.540;2024-02-16T07:26:18;50.92;;;33.95;;
70150;SDS011;57517;43.562;19.540;2024-02-16T07:28:44;54.78;;;32.25;;
70150;SDS011;57517;43.562;19.540;2024-02-16T07:31:09;36.17;;;27.08;;
70150;SDS011;57517;43.562;19.540;2024-02-16T07:33:36;39.00;;;27.65;;
70150;SDS011;57517;43.562;19.540;2024-02-16T07:36:02;63.55;;;29.05;;
70150;SDS011;57517;43.562;19.540;2024-02-16T07:38:28;41.58;;;28.38;;
70150;SDS011;57517;43.562;19.540;2024-02-16T07:40:54;44.08;;;29.30;;
70150;SDS011;57517;43.562;19.540;2024-02-16T07:43:20;45.63;;;29.35;;
70150;SDS011;57517;43.562;19.540;2024-02-16T07:45:47;42.28;;;28.92;;
70150;SDS011;57517;43.562;19.540;2024-02-16T07:48:13;41.40;;;27.73;;
70150;SDS011;57517;43.562;19.540;2024-02-16T07:50:39;45.20;;;33.13;;
70150;SDS011;57517;43.562;19.540;2024-02-16T07:53:04;48.53;;;31.63;;
70150;SDS011;57517;43.562;19.540;2024-02-16T07:55:30;41.40;;;28.90;;
70150;SDS011;57517;43.562;19.540;2024-02-16T07:57:56;42.25;;;28.55;;
70150;SDS011;57517;43.562;19.540;2024-02-16T08:00:22;69.95;;;53.63;;
70150;SDS011;57517;43.562;19.540;2024-02-16T08:02:48;65.80;;;49.90;;
70150;SDS011;57517;43.562;19.540;2024-02-16T08:05:13;68.80;;;44.35;;
70150;SDS011;57517;43.562;19.540;2024-02-16T08:07:40;83.10;;;55.75;;
70150;SDS011;57517;43.562;19.540;2024-02-16T08:10:09;59.55;;;42.20;;
70150;SDS011;57517;43.562;19.540;2024-02-16T08:12:35;51.13;;;35.97;;
70150;SDS011;57517;43.562;19.540;2024-02-16T08:15:05;48.55;;;37.65;;
70150;SDS011;57517;43.562;19.540;2024-02-16T08:17:32;60.55;;;41.13;;
70150;SDS011;57517;43.562;19.540;2024-02-16T08:19:59;65.75;;;48.13;;
70150;SDS011;57517;43.562;19.540;2024-02-16T08:22:25;84.57;;;57.33;;
70150;SDS011;57517;43.562;19.540;2024-02-16T08:24:51;160.40;;;93.10;;
70150;SDS011;57517;43.562;19.540;2024-02-16T08:27:17;76.85;;;49.40;;
70150;SDS011;57517;43.562;19.540;2024-02-16T08:29:43;59.25;;;44.63;;
70150;SDS011;57517;43.562;19.540;2024-02-16T08:32:09;73.55;;;54.88;;
70150;SDS011;57517;43.562;19.540;2024-02-16T08:34:35;104.75;;;70.47;;
70150;SDS011;57517;43.562;19.540;2024-02-16T08:37:02;69.45;;;51.42;;
70150;SDS011;57517;43.562;19.540;2024-02-16T08:39:31;57.67;;;45.97;;
70150;SDS011;57517;43.562;19.540;2024-02-16T08:41:59;74.97;;;50.67;;
70150;SDS011;57517;43.562;19.540;2024-02-16T08:44:25;57.13;;;47.40;;
70150;SDS011;57517;43.562;19.540;2024-02-16T08:46:52;56.88;;;47.08;;
70150;SDS011;57517;43.562;19.540;2024-02-16T08:49:18;51.55;;;44.05;;
70150;SDS011;57517;43.562;19.540;2024-02-16T08:51:45;54.38;;;45.33;;
70150;SDS011;57517;43.562;19.540;2024-02-16T08:54:11;48.47;;;39.72;;
70150;SDS011;57517;43.562;19.540;2024-02-16T08:56:37;53.78;;;44.20;;
70150;SDS011;57517;43.562;19.540;2024-02-16T08:59:04;41.97;;;36.00;;
70150;SDS011;57517;43.562;19.540;2024-02-16T09:01:31;39.25;;;34.88;;
70150;SDS011;57517;43.562;19.540;2024-02-16T09:04:01;37.13;;;33.35;;
70150;SDS011;57517;43.562;19.540;2024-02-16T09:06:28;33.42;;;29.98;;
70150;SDS011;57517;43.562;19.540;2024-02-16T09:08:54;33.17;;;29.67;;
70150;SDS011;57517;43.562;19.540;2024-02-16T09:11:20;35.15;;;31.45;;
70150;SDS011;57517;43.562;19.540;2024-02-16T09:13:47;37.42;;;33.53;;
70150;SDS011;57517;43.562;19.540;2024-02-16T09:16:13;42.65;;;38.30;;
70150;SDS011;57517;43.562;19.540;2024-02-16T09:18:38;46.35;;;41.35;;
70150;SDS011;57517;43.562;19.540;2024-02-16T09:21:05;40.22;;;36.17;;
70150;SDS011;57517;43.562;19.540;2024-02-16T09:23:31;38.13;;;34.20;;
70150;SDS011;57517;43.562;19.540;2024-02-16T09:25:58;32.30;;;29.10;;
70150;SDS011;57517;43.562;19.540;2024-02-16T09:28:25;29.55;;;26.58;;
70150;SDS011;57517;43.562;19.540;2024-02-16T09:30:51;32.33;;;29.13;;
70150;SDS011;57517;43.562;19.540;2024-02-16T09:33:20;33.95;;;30.73;;
70150;SDS011;57517;43.562;19.540;2024-02-16T09:35:47;35.05;;;31.35;;
70150;SDS011;57517;43.562;19.540;2024-02-16T09:38:14;35.85;;;32.25;;
70150;SDS011;57517;43.562;19.540;2024-02-16T09:40:40;36.40;;;32.50;;
70150;SDS011;57517;43.562;19.540;2024-02-16T09:43:06;37.75;;;32.30;;
70150;SDS011;57517;43.562;19.540;2024-02-16T09:45:33;46.17;;;38.28;;
70150;SDS011;57517;43.562;19.540;2024-02-16T09:47:59;30.80;;;27.60;;
70150;SDS011;57517;43.562;19.540;2024-02-16T09:50:25;29.92;;;26.92;;
70150;SDS011;57517;43.562;19.540;2024-02-16T09:52:54;30.95;;;27.75;;
70150;SDS011;57517;43.562;19.540;2024-02-16T09:55:20;30.85;;;27.65;;
70150;SDS011;57517;43.562;19.540;2024-02-16T09:57:47;31.55;;;28.23;;
70150;SDS011;57517;43.562;19.540;2024-02-16T10:00:23;24.83;;;22.38;;
70150;SDS011;57517;43.562;19.540;2024-02-16T10:02:49;23.42;;;21.02;;
70150;SDS011;57517;43.562;19.540;2024-02-16T10:05:16;19.80;;;17.95;;
70150;SDS011;57517;43.562;19.540;2024-02-16T10:07:43;27.17;;;24.33;;
70150;SDS011;57517;43.562;19.540;2024-02-16T10:13:00;22.75;;;20.35;;
70150;SDS011;57517;43.562;19.540;2024-02-16T10:15:26;22.42;;;20.02;;
70150;SDS011;57517;43.562;19.540;2024-02-16T10:18:02;21.48;;;18.88;;
70150;SDS011;57517;43.562;19.540;2024-02-16T10:20:29;22.50;;;20.10;;
70150;SDS011;57517;43.562;19.540;2024-02-16T10:25:48;22.83;;;19.42;;
70150;SDS011;57517;43.562;19.540;2024-02-16T10:28:14;18.63;;;16.70;;
70150;SDS011;57517;43.562;19.540;2024-02-16T10:30:42;24.60;;;21.00;;
70150;SDS011;57517;43.562;19.540;2024-02-16T10:33:09;24.25;;;19.05;;
70150;SDS011;57517;43.562;19.540;2024-02-16T10:35:35;19.55;;;17.63;;
70150;SDS011;57517;43.562;19.540;2024-02-16T10:38:02;19.73;;;17.45;;
70150;SDS011;57517;43.562;19.540;2024-02-16T10:40:38;19.58;;;17.75;;
70150;SDS011;57517;43.562;19.540;2024-02-16T10:43:05;22.55;;;20.27;;
70150;SDS011;57517;43.562;19.540;2024-02-16T10:45:35;21.10;;;18.90;;
70150;SDS011;57517;43.562;19.540;2024-02-16T10:48:02;18.48;;;16.33;;
70150;SDS011;57517;43.562;19.540;2024-02-16T10:50:29;16.52;;;13.98;;
70150;SDS011;57517;43.562;19.540;2024-02-16T10:52:57;13.18;;;11.88;;
70150;SDS011;57517;43.562;19.540;2024-02-16T10:55:28;14.27;;;11.52;;
70150;SDS011;57517;43.562;19.540;2024-02-16T10:57:55;11.98;;;10.50;;
70150;SDS011;57517;43.562;19.540;2024-02-16T11:00:24;16.63;;;12.27;;
70150;SDS011;57517;43.562;19.540;2024-02-16T11:02:50;19.25;;;14.15;;
70150;SDS011;57517;43.562;19.540;2024-02-16T11:05:39;24.40;;;22.10;;
70150;SDS011;57517;43.562;19.540;2024-02-16T11:08:11;14.90;;;13.32;;
70150;SDS011;57517;43.562;19.540;2024-02-16T11:10:39;95.55;;;84.47;;
70150;SDS011;57517;43.562;19.540;2024-02-16T11:13:05;40.47;;;33.33;;
70150;SDS011;57517;43.562;19.540;2024-02-16T11:15:32;27.10;;;23.10;;
70150;SDS011;57517;43.562;19.540;2024-02-16T11:18:02;50.45;;;45.05;;
70150;SDS011;57517;43.562;19.540;2024-02-16T11:20:35;27.55;;;24.15;;
70150;SDS011;57517;43.562;19.540;2024-02-16T11:23:06;24.60;;;19.10;;
70150;SDS011;57517;43.562;19.540;2024-02-16T11:25:33;14.45;;;12.93;;
70150;SDS011;57517;43.562;19.540;2024-02-16T11:28:01;16.10;;;11.25;;
70150;SDS011;57517;43.562;19.540;2024-02-16T11:30:29;16.42;;;12.43;;
70150;SDS011;57517;43.562;19.540;2024-02-16T11:32:59;16.85;;;14.07;;
70150;SDS011;57517;43.562;19.540;2024-02-16T11:35:25;14.23;;;10.15;;
70150;SDS011;57517;43.562;19.540;2024-02-16T11:37:50;12.52;;;9.95;;
70150;SDS011;57517;43.562;19.540;2024-02-16T11:40:16;13.05;;;11.27;;
70150;SDS011;57517;43.562;19.540;2024-02-16T11:42:44;13.38;;;10.27;;
70150;SDS011;57517;43.562;19.540;2024-02-16T11:45:12;13.88;;;10.55;;
70150;SDS011;57517;43.562;19.540;2024-02-16T11:47:37;9.35;;;7.50;;
70150;SDS011;57517;43.562;19.540;2024-02-16T11:50:04;8.68;;;7.53;;
70150;SDS011;57517;43.562;19.540;2024-02-16T11:52:31;17.88;;;10.90;;
70150;SDS011;57517;43.562;19.540;2024-02-16T11:54:57;13.02;;;9.18;;
70150;SDS011;57517;43.562;19.540;2024-02-16T11:57:28;17.00;;;10.25;;
70150;SDS011;57517;43.562;19.540;2024-02-16T11:59:54;16.63;;;10.52;;
70150;SDS011;57517;43.562;19.540;2024-02-16T12:02:20;16.55;;;10.75;;
70150;SDS011;57517;43.562;19.540;2024-02-16T12:04:56;14.40;;;9.55;;
70150;SDS011;57517;43.562;19.540;2024-02-16T12:07:26;12.40;;;8.70;;
70150;SDS011;57517;43.562;19.540;2024-02-16T12:09:58;12.80;;;8.63;;
70150;SDS011;57517;43.562;19.540;2024-02-16T12:12:25;13.65;;;11.00;;
70150;SDS011;57517;43.562;19.540;2024-02-16T12:14:52;20.98;;;15.13;;
70150;SDS011;57517;43.562;19.540;2024-02-16T12:17:19;35.00;;;21.80;;
70150;SDS011;57517;43.562;19.540;2024-02-16T12:19:45;22.70;;;14.80;;
70150;SDS011;57517;43.562;19.540;2024-02-16T12:22:16;22.70;;;15.88;;
70150;SDS011;57517;43.562;19.540;2024-02-16T12:24:43;18.17;;;14.52;;
70150;SDS011;57517;43.562;19.540;2024-02-16T12:27:11;15.63;;;11.93;;
70150;SDS011;57517;43.562;19.540;2024-02-16T12:29:38;12.93;;;9.02;;
70150;SDS011;57517;43.562;19.540;2024-02-16T12:32:05;11.07;;;8.82;;
70150;SDS011;57517;43.562;19.540;2024-02-16T12:34:31;10.55;;;7.82;;
70150;SDS011;57517;43.562;19.540;2024-02-16T12:36:57;9.65;;;7.13;;
70150;SDS011;57517;43.562;19.540;2024-02-16T12:39:22;11.60;;;8.45;;
70150;SDS011;57517;43.562;19.540;2024-02-16T12:41:48;14.25;;;9.15;;
70150;SDS011;57517;43.562;19.540;2024-02-16T12:44:14;13.73;;;10.25;;
70150;SDS011;57517;43.562;19.540;2024-02-16T12:46:40;16.60;;;11.52;;
70150;SDS011;57517;43.562;19.540;2024-02-16T12:49:08;18.98;;;13.75;;
70150;SDS011;57517;43.562;19.540;2024-02-16T12:51:33;16.95;;;12.80;;
70150;SDS011;57517;43.562;19.540;2024-02-16T12:53:59;15.02;;;11.50;;
70150;SDS011;57517;43.562;19.540;2024-02-16T12:56:29;13.40;;;10.23;;
70150;SDS011;57517;43.562;19.540;2024-02-16T12:58:55;14.90;;;9.60;;
70150;SDS011;57517;43.562;19.540;2024-02-16T13:01:21;14.95;;;11.57;;
70150;SDS011;57517;43.562;19.540;2024-02-16T13:03:47;11.23;;;8.27;;
70150;SDS011;57517;43.562;19.540;2024-02-16T13:06:13;9.80;;;7.93;;
70150;SDS011;57517;43.562;19.540;2024-02-16T13:08:39;10.43;;;7.55;;
70150;SDS011;57517;43.562;19.540;2024-02-16T13:11:05;10.65;;;7.18;;
70150;SDS011;57517;43.562;19.540;2024-02-16T13:13:31;8.02;;;6.25;;
70150;SDS011;57517;43.562;19.540;2024-02-16T13:15:57;10.02;;;6.53;;
70150;SDS011;57517;43.562;19.540;2024-02-16T13:18:24;10.73;;;6.70;;
70150;SDS011;57517;43.562;19.540;2024-02-16T13:20:50;10.05;;;7.43;;
70150;SDS011;57517;43.562;19.540;2024-02-16T13:23:16;17.38;;;9.93;;
70150;SDS011;57517;43.562;19.540;2024-02-16T13:25:41;15.32;;;10.77;;
70150;SDS011;57517;43.562;19.540;2024-02-16T13:28:07;16.88;;;11.38;;
70150;SDS011;57517;43.562;19.540;2024-02-16T13:30:33;13.93;;;10.13;;
70150;SDS011;57517;43.562;19.540;2024-02-16T13:32:59;17.95;;;12.32;;
70150;SDS011;57517;43.562;19.540;2024-02-16T13:35:25;15.27;;;9.85;;
70150;SDS011;57517;43.562;19.540;2024-02-16T13:37:51;11.15;;;8.18;;
70150;SDS011;57517;43.562;19.540;2024-02-16T13:40:17;10.05;;;6.20;;
70150;SDS011;57517;43.562;19.540;2024-02-16T13:42:43;9.80;;;6.80;;
70150;SDS011;57517;43.562;19.540;2024-02-16T13:45:10;11.05;;;7.45;;
70150;SDS011;57517;43.562;19.540;2024-02-16T13:47:36;9.57;;;7.18;;
70150;SDS011;57517;43.562;19.540;2024-02-16T13:50:05;11.15;;;8.38;;
70150;SDS011;57517;43.562;19.540;2024-02-16T13:52:31;14.45;;;8.93;;
70150;SDS011;57517;43.562;19.540;2024-02-16T13:54:57;11.95;;;9.07;;
70150;SDS011;57517;43.562;19.540;2024-02-16T13:57:23;17.85;;;9.70;;
70150;SDS011;57517;43.562;19.540;2024-02-16T13:59:49;15.35;;;10.55;;
70150;SDS011;57517;43.562;19.540;2024-02-16T14:02:15;17.27;;;11.15;;
70150;SDS011;57517;43.562;19.540;2024-02-16T14:04:41;14.32;;;11.40;;
70150;SDS011;57517;43.562;19.540;2024-02-16T14:07:07;19.63;;;14.45;;
70150;SDS011;57517;43.562;19.540;2024-02-16T14:09:32;24.02;;;16.15;;
70150;SDS011;57517;43.562;19.540;2024-02-16T14:11:58;38.78;;;24.55;;
70150;SDS011;57517;43.562;19.540;2024-02-16T14:14:25;64.78;;;40.15;;